sensor_id;sensor_type;location;lat;lon;timestamp;pressure;altitude;pressure_sealevel;temperature;humidity
30554;BME280;17335;50.720;7.452;2022-07-06T00:01:08;100051.88;;;15.74;100.00
30554;BME280;17335;50.720;7.452;2022-07-06T00:03:35;100056.25;;;15.67;100.00
30554;BME280;17335;50.720;7.452;2022-07-06T00:06:01;100068.38;;;15.55;100.00
30554;BME280;17335;50.720;7.452;2022-07-06T00:08:28;100067.22;;;15.57;100.00
30554;BME280;17335;50.720;7.452;2022-07-06T00:10:55;100065.50;;;15.56;100.00
30554;BME280;17335;50.720;7.452;2022-07-06T00:13:21;100070.59;;;15.60;100.00
30554;BME280;17335;50.720;7.452;2022-07-06T00:15:48;100080.56;;;15.59;100.00
30554;BME280;17335;50.720;7.452;2022-07-06T00:18:15;100072.41;;;15.51;100.00
30554;BME280;17335;50.720;7.452;2022-07-06T00:20:41;100071.53;;;15.50;100.00
30554;BME280;17335;50.720;7.452;2022-07-06T00:23:08;100074.25;;;15.50;100.00
30554;BME280;17335;50.720;7.452;2022-07-06T00:25:35;100071.31;;;15.44;100.00
30554;BME280;17335;50.720;7.452;2022-07-06T00:28:02;100068.56;;;15.35;100.00
30554;BME280;17335;50.720;7.452;2022-07-06T00:30:29;100066.88;;;15.34;100.00
30554;BME280;17335;50.720;7.452;2022-07-06T00:32:56;100066.81;;;15.26;100.00
30554;BME280;17335;50.720;7.452;2022-07-06T00:35:25;100070.69;;;15.24;100.00
30554;BME280;17335;50.720;7.452;2022-07-06T00:37:52;100065.88;;;15.17;100.00
30554;BME280;17335;50.720;7.452;2022-07-06T00:40:18;100080.75;;;15.13;100.00
30554;BME280;17335;50.720;7.452;2022-07-06T00:42:47;100078.88;;;15.14;100.00
30554;BME280;17335;50.720;7.452;2022-07-06T00:45:15;100073.53;;;15.04;100.00
30554;BME280;17335;50.720;7.452;2022-07-06T00:47:43;100073.50;;;14.96;100.00
30554;BME280;17335;50.720;7.452;2022-07-06T00:50:11;100069.72;;;14.89;100.00
30554;BME280;17335;50.720;7.452;2022-07-06T00:52:42;100069.72;;;14.89;100.00
30554;BME280;17335;50.720;7.452;2022-07-06T00:55:10;100072.78;;;14.94;100.00
30554;BME280;17335;50.720;7.452;2022-07-06T00:57:37;100069.63;;;14.80;100.00
30554;BME280;17335;50.720;7.452;2022-07-06T01:00:05;100073.56;;;14.86;100.00
30554;BME280;17335;50.720;7.452;2022-07-06T01:02:33;100077.66;;;14.72;100.00
30554;BME280;17335;50.720;7.452;2022-07-06T01:10:17;100071.78;;;14.59;100.00
30554;BME280;17335;50.720;7.452;2022-07-06T01:12:45;100067.50;;;14.56;100.00
30554;BME280;17335;50.720;7.452;2022-07-06T01:15:15;100071.50;;;14.52;100.00
30554;BME280;17335;50.720;7.452;2022-07-06T01:17:42;100070.13;;;14.48;100.00
30554;BME280;17335;50.720;7.452;2022-07-06T01:20:24;100066.81;;;14.26;100.00
30554;BME280;17335;50.720;7.452;2022-07-06T01:22:53;100070.66;;;14.34;100.00
30554;BME280;17335;50.720;7.452;2022-07-06T01:25:20;100065.13;;;14.25;100.00
30554;BME280;17335;50.720;7.452;2022-07-06T01:27:47;100074.38;;;14.23;100.00
30554;BME280;17335;50.720;7.452;2022-07-06T01:30:16;100079.84;;;14.13;100.00
30554;BME280;17335;50.720;7.452;2022-07-06T01:32:43;100073.88;;;14.10;100.00
30554;BME280;17335;50.720;7.452;2022-07-06T01:35:12;100085.03;;;13.97;100.00
30554;BME280;17335;50.720;7.452;2022-07-06T01:37:39;100076.78;;;13.98;100.00
30554;BME280;17335;50.720;7.452;2022-07-06T01:40:08;100085.44;;;14.02;100.00
30554;BME280;17335;50.720;7.452;2022-07-06T01:42:35;100081.78;;;13.93;100.00
30554;BME280;17335;50.720;7.452;2022-07-06T01:45:05;100077.22;;;13.94;100.00
30554;BME280;17335;50.720;7.452;2022-07-06T01:47:32;100078.28;;;13.83;100.00
30554;BME280;17335;50.720;7.452;2022-07-06T01:50:05;100075.66;;;13.63;100.00
30554;BME280;17335;50.720;7.452;2022-07-06T01:52:32;100080.44;;;13.60;100.00
30554;BME280;17335;50.720;7.452;2022-07-06T01:54:59;100077.53;;;13.43;100.00
30554;BME280;17335;50.720;7.452;2022-07-06T01:57:25;100075.81;;;13.42;100.00
30554;BME280;17335;50.720;7.452;2022-07-06T01:59:52;100076.13;;;13.39;100.00
30554;BME280;17335;50.720;7.452;2022-07-06T02:02:19;100072.00;;;13.35;100.00
30554;BME280;17335;50.720;7.452;2022-07-06T02:04:45;100078.09;;;13.27;100.00
30554;BME280;17335;50.720;7.452;2022-07-06T02:07:12;100071.13;;;13.25;100.00
30554;BME280;17335;50.720;7.452;2022-07-06T02:09:38;100073.69;;;13.17;100.00
30554;BME280;17335;50.720;7.452;2022-07-06T02:12:05;100080.22;;;13.04;100.00
30554;BME280;17335;50.720;7.452;2022-07-06T02:14:32;100084.78;;;13.04;100.00
30554;BME280;17335;50.720;7.452;2022-07-06T02:16:58;100084.09;;;13.02;100.00
30554;BME280;17335;50.720;7.452;2022-07-06T02:19:25;100083.34;;;13.09;100.00
30554;BME280;17335;50.720;7.452;2022-07-06T02:21:52;100089.63;;;13.00;100.00
30554;BME280;17335;50.720;7.452;2022-07-06T02:24:18;100086.34;;;12.97;100.00
30554;BME280;17335;50.720;7.452;2022-07-06T02:26:45;100086.91;;;12.90;100.00
30554;BME280;17335;50.720;7.452;2022-07-06T02:29:11;100080.38;;;12.83;100.00
30554;BME280;17335;50.720;7.452;2022-07-06T02:31:38;100078.81;;;12.81;100.00
30554;BME280;17335;50.720;7.452;2022-07-06T02:34:05;100077.09;;;12.70;100.00
30554;BME280;17335;50.720;7.452;2022-07-06T02:36:31;100077.38;;;12.67;100.00
30554;BME280;17335;50.720;7.452;2022-07-06T02:38:58;100083.78;;;12.66;100.00
30554;BME280;17335;50.720;7.452;2022-07-06T02:41:24;100076.81;;;12.63;100.00
30554;BME280;17335;50.720;7.452;2022-07-06T02:43:51;100072.16;;;12.55;100.00
30554;BME280;17335;50.720;7.452;2022-07-06T02:46:18;100073.84;;;12.47;100.00
30554;BME280;17335;50.720;7.452;2022-07-06T02:48:44;100080.47;;;12.43;100.00
30554;BME280;17335;50.720;7.452;2022-07-06T02:51:11;100080.78;;;12.40;100.00
30554;BME280;17335;50.720;7.452;2022-07-06T02:53:38;100085.28;;;12.29;100.00
30554;BME280;17335;50.720;7.452;2022-07-06T02:56:04;100080.97;;;12.17;100.00
30554;BME280;17335;50.720;7.452;2022-07-06T02:58:31;100088.00;;;11.98;100.00
30554;BME280;17335;50.720;7.452;2022-07-06T03:00:57;100097.78;;;11.99;100.00
30554;BME280;17335;50.720;7.452;2022-07-06T03:03:24;100095.78;;;11.92;100.00
30554;BME280;17335;50.720;7.452;2022-07-06T03:05:51;100098.81;;;11.87;100.00
30554;BME280;17335;50.720;7.452;2022-07-06T03:08:18;100095.78;;;11.92;100.00
30554;BME280;17335;50.720;7.452;2022-07-06T03:10:46;100102.47;;;11.86;100.00
30554;BME280;17335;50.720;7.452;2022-07-06T03:13:12;100095.56;;;11.83;100.00
30554;BME280;17335;50.720;7.452;2022-07-06T03:15:39;100087.88;;;11.79;100.00
30554;BME280;17335;50.720;7.452;2022-07-06T03:18:05;100098.63;;;11.79;100.00
30554;BME280;17335;50.720;7.452;2022-07-06T03:20:32;100105.53;;;11.72;100.00
30554;BME280;17335;50.720;7.452;2022-07-06T03:22:59;100102.00;;;11.71;100.00
30554;BME280;17335;50.720;7.452;2022-07-06T03:25:25;100103.41;;;11.66;100.00
30554;BME280;17335;50.720;7.452;2022-07-06T03:27:52;100111.19;;;11.69;100.00
30554;BME280;17335;50.720;7.452;2022-07-06T03:30:18;100104.44;;;11.74;100.00
30554;BME280;17335;50.720;7.452;2022-07-06T03:32:45;100104.00;;;11.79;100.00
30554;BME280;17335;50.720;7.452;2022-07-06T03:35:12;100106.00;;;11.77;100.00
30554;BME280;17335;50.720;7.452;2022-07-06T03:37:38;100108.56;;;11.78;100.00
30554;BME280;17335;50.720;7.452;2022-07-06T03:40:05;100103.31;;;11.77;100.00
30554;BME280;17335;50.720;7.452;2022-07-06T03:42:32;100112.38;;;11.76;100.00
30554;BME280;17335;50.720;7.452;2022-07-06T03:44:58;100109.38;;;11.69;100.00
30554;BME280;17335;50.720;7.452;2022-07-06T03:47:25;100113.88;;;11.69;100.00
30554;BME280;17335;50.720;7.452;2022-07-06T03:49:51;100120.72;;;11.73;100.00
30554;BME280;17335;50.720;7.452;2022-07-06T03:52:18;100116.16;;;11.73;100.00
30554;BME280;17335;50.720;7.452;2022-07-06T03:54:44;100129.94;;;11.80;100.00
30554;BME280;17335;50.720;7.452;2022-07-06T03:57:11;100134.88;;;11.75;100.00
30554;BME280;17335;50.720;7.452;2022-07-06T03:59:40;100136.44;;;11.77;100.00
30554;BME280;17335;50.720;7.452;2022-07-06T04:02:06;100133.94;;;11.86;100.00
30554;BME280;17335;50.720;7.452;2022-07-06T04:04:34;100130.84;;;11.90;100.00
30554;BME280;17335;50.720;7.452;2022-07-06T04:07:00;100139.44;;;11.84;100.00
30554;BME280;17335;50.720;7.452;2022-07-06T04:09:27;100134.06;;;11.84;100.00
30554;BME280;17335;50.720;7.452;2022-07-06T04:11:54;100135.66;;;11.87;100.00
30554;BME280;17335;50.720;7.452;2022-07-06T04:14:20;100137.63;;;11.85;100.00
30554;BME280;17335;50.720;7.452;2022-07-06T04:16:47;100137.47;;;11.86;100.00
30554;BME280;17335;50.720;7.452;2022-07-06T04:19:14;100137.19;;;11.89;100.00
30554;BME280;17335;50.720;7.452;2022-07-06T04:21:40;100142.59;;;11.89;100.00
30554;BME280;17335;50.720;7.452;2022-07-06T04:24:07;100139.88;;;11.89;100.00
30554;BME280;17335;50.720;7.452;2022-07-06T04:26:34;100146.28;;;11.88;100.00
30554;BME280;17335;50.720;7.452;2022-07-06T04:29:01;100146.28;;;11.88;100.00
30554;BME280;17335;50.720;7.452;2022-07-06T04:31:28;100152.63;;;11.87;100.00
30554;BME280;17335;50.720;7.452;2022-07-06T04:33:55;100159.84;;;11.87;100.00
30554;BME280;17335;50.720;7.452;2022-07-06T04:36:21;100153.25;;;11.91;100.00
30554;BME280;17335;50.720;7.452;2022-07-06T04:38:48;100165.38;;;11.85;100.00
30554;BME280;17335;50.720;7.452;2022-07-06T04:41:14;100163.13;;;11.90;100.00
30554;BME280;17335;50.720;7.452;2022-07-06T04:43:41;100163.06;;;12.01;100.00
30554;BME280;17335;50.720;7.452;2022-07-06T04:46:08;100153.19;;;12.12;100.00
30554;BME280;17335;50.720;7.452;2022-07-06T04:48:35;100155.94;;;12.22;100.00
30554;BME280;17335;50.720;7.452;2022-07-06T04:51:05;100159.66;;;12.30;100.00
30554;BME280;17335;50.720;7.452;2022-07-06T04:53:31;100148.22;;;12.48;100.00
30554;BME280;17335;50.720;7.452;2022-07-06T04:55:58;100147.56;;;12.55;100.00
30554;BME280;17335;50.720;7.452;2022-07-06T04:58:25;100147.41;;;12.67;100.00
30554;BME280;17335;50.720;7.452;2022-07-06T05:00:52;100146.91;;;12.92;100.00
30554;BME280;17335;50.720;7.452;2022-07-06T05:03:20;100142.34;;;13.71;100.00
30554;BME280;17335;50.720;7.452;2022-07-06T05:05:47;100132.59;;;15.09;100.00
30554;BME280;17335;50.720;7.452;2022-07-06T05:08:13;100130.66;;;15.01;100.00
30554;BME280;17335;50.720;7.452;2022-07-06T05:10:40;100135.63;;;15.50;100.00
30554;BME280;17335;50.720;7.452;2022-07-06T05:13:06;100130.59;;;16.84;100.00
30554;BME280;17335;50.720;7.452;2022-07-06T05:15:33;100122.03;;;16.55;100.00
30554;BME280;17335;50.720;7.452;2022-07-06T05:17:59;100125.25;;;16.16;100.00
30554;BME280;17335;50.720;7.452;2022-07-06T05:20:26;100128.34;;;15.68;100.00
30554;BME280;17335;50.720;7.452;2022-07-06T05:22:53;100131.72;;;15.26;100.00
30554;BME280;17335;50.720;7.452;2022-07-06T05:25:19;100134.91;;;15.04;100.00
30554;BME280;17335;50.720;7.452;2022-07-06T05:27:46;100140.03;;;14.61;100.00
30554;BME280;17335;50.720;7.452;2022-07-06T05:30:13;100136.38;;;14.15;100.00
30554;BME280;17335;50.720;7.452;2022-07-06T05:32:42;100142.94;;;14.12;100.00
30554;BME280;17335;50.720;7.452;2022-07-06T05:35:08;100155.91;;;13.99;100.00
30554;BME280;17335;50.720;7.452;2022-07-06T05:37:55;100147.66;;;14.10;100.00
30554;BME280;17335;50.720;7.452;2022-07-06T05:40:21;100151.56;;;14.25;100.00
30554;BME280;17335;50.720;7.452;2022-07-06T05:42:48;100147.53;;;14.39;100.00
30554;BME280;17335;50.720;7.452;2022-07-06T05:45:14;100142.69;;;14.33;100.00
30554;BME280;17335;50.720;7.452;2022-07-06T05:47:41;100149.72;;;14.54;100.00
30554;BME280;17335;50.720;7.452;2022-07-06T05:50:26;100146.22;;;14.43;100.00
30554;BME280;17335;50.720;7.452;2022-07-06T05:53:00;100156.91;;;14.35;100.00
30554;BME280;17335;50.720;7.452;2022-07-06T05:55:38;100158.34;;;14.30;100.00
30554;BME280;17335;50.720;7.452;2022-07-06T05:58:05;100160.25;;;14.19;100.00
30554;BME280;17335;50.720;7.452;2022-07-06T06:00:31;100159.53;;;14.27;100.00
30554;BME280;17335;50.720;7.452;2022-07-06T06:02:58;100161.47;;;14.35;100.00
30554;BME280;17335;50.720;7.452;2022-07-06T06:05:26;100162.97;;;14.10;100.00
30554;BME280;17335;50.720;7.452;2022-07-06T06:07:52;100164.13;;;14.07;100.00
30554;BME280;17335;50.720;7.452;2022-07-06T06:10:20;100171.47;;;14.15;100.00
30554;BME280;17335;50.720;7.452;2022-07-06T06:12:48;100169.66;;;14.15;100.00
30554;BME280;17335;50.720;7.452;2022-07-06T06:15:15;100175.31;;;14.22;100.00
30554;BME280;17335;50.720;7.452;2022-07-06T06:17:41;100170.22;;;14.47;100.00
30554;BME280;17335;50.720;7.452;2022-07-06T06:20:10;100169.28;;;15.29;100.00
30554;BME280;17335;50.720;7.452;2022-07-06T06:23:03;100168.97;;;16.21;100.00
30554;BME280;17335;50.720;7.452;2022-07-06T06:25:33;100168.88;;;16.81;100.00
30554;BME280;17335;50.720;7.452;2022-07-06T06:28:01;100156.72;;;16.85;100.00
30554;BME280;17335;50.720;7.452;2022-07-06T06:30:28;100161.00;;;16.62;100.00
30554;BME280;17335;50.720;7.452;2022-07-06T06:33:18;100165.63;;;16.27;100.00
30554;BME280;17335;50.720;7.452;2022-07-06T06:35:50;100166.19;;;16.04;100.00
30554;BME280;17335;50.720;7.452;2022-07-06T06:38:18;100163.50;;;16.12;100.00
30554;BME280;17335;50.720;7.452;2022-07-06T06:40:45;100160.47;;;15.89;100.00
30554;BME280;17335;50.720;7.452;2022-07-06T06:43:12;100170.31;;;15.72;100.00
30554;BME280;17335;50.720;7.452;2022-07-06T06:45:39;100178.69;;;15.79;100.00
30554;BME280;17335;50.720;7.452;2022-07-06T06:48:06;100174.34;;;15.86;100.00
30554;BME280;17335;50.720;7.452;2022-07-06T06:50:41;100179.78;;;15.68;100.00
30554;BME280;17335;50.720;7.452;2022-07-06T06:53:08;100174.69;;;15.47;100.00
30554;BME280;17335;50.720;7.452;2022-07-06T06:55:34;100176.78;;;15.35;100.00
30554;BME280;17335;50.720;7.452;2022-07-06T06:58:01;100188.47;;;15.18;100.00
30554;BME280;17335;50.720;7.452;2022-07-06T07:00:28;100179.56;;;15.26;100.00
30554;BME280;17335;50.720;7.452;2022-07-06T07:02:55;100174.25;;;15.34;100.00
30554;BME280;17335;50.720;7.452;2022-07-06T07:05:21;100178.94;;;15.50;100.00
30554;BME280;17335;50.720;7.452;2022-07-06T07:07:48;100187.34;;;15.47;100.00
30554;BME280;17335;50.720;7.452;2022-07-06T07:10:14;100182.03;;;15.55;100.00
30554;BME280;17335;50.720;7.452;2022-07-06T07:12:47;100188.03;;;15.49;100.00
30554;BME280;17335;50.720;7.452;2022-07-06T07:15:15;100185.81;;;15.80;100.00
30554;BME280;17335;50.720;7.452;2022-07-06T07:17:43;100198.84;;;15.85;100.00
30554;BME280;17335;50.720;7.452;2022-07-06T07:20:10;100193.78;;;15.82;100.00
30554;BME280;17335;50.720;7.452;2022-07-06T07:22:37;100194.94;;;16.05;100.00
30554;BME280;17335;50.720;7.452;2022-07-06T07:25:05;100192.34;;;16.22;100.00
30554;BME280;17335;50.720;7.452;2022-07-06T07:27:32;100190.75;;;16.11;100.00
30554;BME280;17335;50.720;7.452;2022-07-06T07:29:58;100184.09;;;16.05;100.00
30554;BME280;17335;50.720;7.452;2022-07-06T07:32:25;100191.47;;;15.95;100.00
30554;BME280;17335;50.720;7.452;2022-07-06T07:34:52;100187.41;;;15.91;100.00
30554;BME280;17335;50.720;7.452;2022-07-06T07:37:18;100199.19;;;15.82;100.00
30554;BME280;17335;50.720;7.452;2022-07-06T07:39:45;100191.53;;;15.77;100.00
30554;BME280;17335;50.720;7.452;2022-07-06T07:42:12;100190.69;;;15.77;100.00
30554;BME280;17335;50.720;7.452;2022-07-06T07:44:43;100200.03;;;15.64;100.00
30554;BME280;17335;50.720;7.452;2022-07-06T07:47:10;100201.81;;;15.73;100.00
30554;BME280;17335;50.720;7.452;2022-07-06T07:49:36;100196.03;;;16.12;100.00
30554;BME280;17335;50.720;7.452;2022-07-06T07:52:03;100197.44;;;16.25;100.00
30554;BME280;17335;50.720;7.452;2022-07-06T07:54:30;100202.53;;;16.62;100.00
30554;BME280;17335;50.720;7.452;2022-07-06T07:56:56;100204.13;;;16.81;100.00
30554;BME280;17335;50.720;7.452;2022-07-06T07:59:23;100202.66;;;16.53;100.00
30554;BME280;17335;50.720;7.452;2022-07-06T08:01:49;100190.09;;;16.52;100.00
30554;BME280;17335;50.720;7.452;2022-07-06T08:04:16;100196.34;;;16.44;100.00
30554;BME280;17335;50.720;7.452;2022-07-06T08:06:43;100181.84;;;16.61;100.00
30554;BME280;17335;50.720;7.452;2022-07-06T08:09:10;100178.44;;;16.94;100.00
30554;BME280;17335;50.720;7.452;2022-07-06T08:11:36;100178.13;;;17.13;100.00
30554;BME280;17335;50.720;7.452;2022-07-06T08:14:03;100187.38;;;16.86;100.00
30554;BME280;17335;50.720;7.452;2022-07-06T08:16:30;100188.72;;;16.82;100.00
30554;BME280;17335;50.720;7.452;2022-07-06T08:18:57;100180.50;;;16.65;100.00
30554;BME280;17335;50.720;7.452;2022-07-06T08:21:24;100187.75;;;16.57;100.00
30554;BME280;17335;50.720;7.452;2022-07-06T08:24:10;100190.97;;;16.52;100.00
30554;BME280;17335;50.720;7.452;2022-07-06T08:26:37;100197.09;;;16.28;100.00
30554;BME280;17335;50.720;7.452;2022-07-06T08:29:04;100188.63;;;15.97;100.00
30554;BME280;17335;50.720;7.452;2022-07-06T08:31:32;100197.44;;;15.99;100.00
30554;BME280;17335;50.720;7.452;2022-07-06T08:34:20;100198.69;;;16.04;100.00
30554;BME280;17335;50.720;7.452;2022-07-06T08:36:47;100198.78;;;15.94;100.00
30554;BME280;17335;50.720;7.452;2022-07-06T08:39:13;100185.13;;;16.04;100.00
30554;BME280;17335;50.720;7.452;2022-07-06T08:41:43;100185.19;;;16.12;100.00
30554;BME280;17335;50.720;7.452;2022-07-06T08:44:15;100195.44;;;16.01;100.00
30554;BME280;17335;50.720;7.452;2022-07-06T08:46:43;100187.09;;;16.20;100.00
30554;BME280;17335;50.720;7.452;2022-07-06T08:49:16;100194.22;;;16.56;100.00
30554;BME280;17335;50.720;7.452;2022-07-06T08:51:44;100190.97;;;16.52;100.00
30554;BME280;17335;50.720;7.452;2022-07-06T08:54:12;100194.94;;;16.74;100.00
30554;BME280;17335;50.720;7.452;2022-07-06T08:56:39;100186.16;;;16.80;100.00
30554;BME280;17335;50.720;7.452;2022-07-06T08:59:14;100182.34;;;16.99;100.00
30554;BME280;17335;50.720;7.452;2022-07-06T09:01:41;100180.88;;;17.46;100.00
30554;BME280;17335;50.720;7.452;2022-07-06T09:04:09;100175.44;;;17.79;100.00
30554;BME280;17335;50.720;7.452;2022-07-06T09:06:36;100170.84;;;18.12;100.00
30554;BME280;17335;50.720;7.452;2022-07-06T09:09:05;100163.97;;;18.33;100.00
30554;BME280;17335;50.720;7.452;2022-07-06T09:11:33;100158.06;;;18.29;100.00
30554;BME280;17335;50.720;7.452;2022-07-06T09:13:59;100164.91;;;18.01;100.00
30554;BME280;17335;50.720;7.452;2022-07-06T09:16:28;100168.50;;;17.68;100.00
30554;BME280;17335;50.720;7.452;2022-07-06T09:19:07;100172.56;;;17.64;100.00
30554;BME280;17335;50.720;7.452;2022-07-06T09:21:34;100180.72;;;17.48;100.00
30554;BME280;17335;50.720;7.452;2022-07-06T09:24:10;100177.81;;;17.49;100.00
30554;BME280;17335;50.720;7.452;2022-07-06T09:26:39;100180.22;;;17.52;99.85
30554;BME280;17335;50.720;7.452;2022-07-06T09:29:05;100180.88;;;17.46;86.87
30554;BME280;17335;50.720;7.452;2022-07-06T09:31:32;100174.59;;;17.70;83.48
30554;BME280;17335;50.720;7.452;2022-07-06T09:34:02;100171.06;;;17.86;91.18
30554;BME280;17335;50.720;7.452;2022-07-06T09:39:28;100165.59;;;17.61;88.04
30554;BME280;17335;50.720;7.452;2022-07-06T09:42:00;100154.41;;;17.65;84.05
30554;BME280;17335;50.720;7.452;2022-07-06T09:44:30;100155.38;;;18.13;86.16
30554;BME280;17335;50.720;7.452;2022-07-06T09:46:59;100157.03;;;18.62;85.84
30554;BME280;17335;50.720;7.452;2022-07-06T09:49:27;100157.81;;;18.79;85.02
30554;BME280;17335;50.720;7.452;2022-07-06T09:51:59;100155.50;;;18.28;72.81
30554;BME280;17335;50.720;7.452;2022-07-06T09:54:26;100166.44;;;17.78;81.81
30554;BME280;17335;50.720;7.452;2022-07-06T09:56:54;100157.13;;;17.32;93.12
30554;BME280;17335;50.720;7.452;2022-07-06T09:59:30;100174.25;;;17.40;100.00
30554;BME280;17335;50.720;7.452;2022-07-06T10:01:59;100172.75;;;17.30;98.38
30554;BME280;17335;50.720;7.452;2022-07-06T10:04:28;100178.69;;;17.33;100.00
30554;BME280;17335;50.720;7.452;2022-07-06T10:06:56;100179.69;;;17.40;100.00
30554;BME280;17335;50.720;7.452;2022-07-06T10:09:26;100180.88;;;17.54;99.46
30554;BME280;17335;50.720;7.452;2022-07-06T10:11:59;100183.44;;;17.56;99.71
30554;BME280;17335;50.720;7.452;2022-07-06T10:14:31;100179.19;;;17.70;100.00
30554;BME280;17335;50.720;7.452;2022-07-06T10:17:00;100175.97;;;17.74;100.00
30554;BME280;17335;50.720;7.452;2022-07-06T10:19:28;100161.88;;;17.95;100.00
30554;BME280;17335;50.720;7.452;2022-07-06T10:21:59;100172.03;;;18.02;99.29
30554;BME280;17335;50.720;7.452;2022-07-06T10:24:27;100174.41;;;18.13;95.31
30554;BME280;17335;50.720;7.452;2022-07-06T10:26:54;100170.59;;;18.30;88.91
30554;BME280;17335;50.720;7.452;2022-07-06T10:29:21;100174.78;;;18.49;89.73
30554;BME280;17335;50.720;7.452;2022-07-06T10:31:48;100171.16;;;18.17;86.02
30554;BME280;17335;50.720;7.452;2022-07-06T10:34:18;100165.75;;;18.57;87.90
30554;BME280;17335;50.720;7.452;2022-07-06T10:36:50;100158.84;;;18.78;91.10
30554;BME280;17335;50.720;7.452;2022-07-06T10:45:21;100155.78;;;19.12;81.77
30554;BME280;17335;50.720;7.452;2022-07-06T10:51:01;100165.75;;;19.20;77.29
30554;BME280;17335;50.720;7.452;2022-07-06T10:53:31;100149.44;;;19.20;72.37
30554;BME280;17335;50.720;7.452;2022-07-06T10:56:02;100143.28;;;20.02;75.35
30554;BME280;17335;50.720;7.452;2022-07-06T10:58:38;100148.06;;;20.30;60.78
30554;BME280;17335;50.720;7.452;2022-07-06T11:01:08;100150.09;;;20.87;62.74
30554;BME280;17335;50.720;7.452;2022-07-06T11:03:46;100158.69;;;20.84;62.88
30554;BME280;17335;50.720;7.452;2022-07-06T11:06:21;100147.22;;;20.14;66.79
30554;BME280;17335;50.720;7.452;2022-07-06T11:14:02;100155.06;;;19.41;71.05
30554;BME280;17335;50.720;7.452;2022-07-06T11:16:31;100160.66;;;19.17;73.19
30554;BME280;17335;50.720;7.452;2022-07-06T11:19:11;100171.56;;;19.17;73.66
30554;BME280;17335;50.720;7.452;2022-07-06T11:21:40;100169.69;;;19.40;70.78
30554;BME280;17335;50.720;7.452;2022-07-06T11:24:10;100163.38;;;19.63;73.17
30554;BME280;17335;50.720;7.452;2022-07-06T11:26:38;100163.56;;;19.84;70.49
30554;BME280;17335;50.720;7.452;2022-07-06T11:29:09;100157.78;;;20.17;72.80
30554;BME280;17335;50.720;7.452;2022-07-06T11:31:46;100152.22;;;20.26;78.84
30554;BME280;17335;50.720;7.452;2022-07-06T11:34:17;100161.97;;;19.90;76.98
30554;BME280;17335;50.720;7.452;2022-07-06T11:36:44;100161.16;;;19.43;73.14
30554;BME280;17335;50.720;7.452;2022-07-06T11:39:12;100165.94;;;19.18;74.60
30554;BME280;17335;50.720;7.452;2022-07-06T11:41:39;100158.25;;;19.22;77.87
30554;BME280;17335;50.720;7.452;2022-07-06T11:44:13;100159.47;;;19.42;76.06
30554;BME280;17335;50.720;7.452;2022-07-06T11:46:40;100155.06;;;19.41;74.13
30554;BME280;17335;50.720;7.452;2022-07-06T11:49:08;100151.72;;;19.54;80.07
30554;BME280;17335;50.720;7.452;2022-07-06T11:51:39;100149.28;;;19.59;72.23
30554;BME280;17335;50.720;7.452;2022-07-06T11:54:12;100146.94;;;20.09;65.89
30554;BME280;17335;50.720;7.452;2022-07-06T11:57:07;100148.34;;;20.35;68.50
30554;BME280;17335;50.720;7.452;2022-07-06T11:59:36;100150.06;;;20.36;71.46
30554;BME280;17335;50.720;7.452;2022-07-06T12:02:07;100149.97;;;20.29;66.95
30554;BME280;17335;50.720;7.452;2022-07-06T12:04:38;100147.22;;;19.84;68.59
30554;BME280;17335;50.720;7.452;2022-07-06T12:07:11;100147.28;;;19.76;72.09
30554;BME280;17335;50.720;7.452;2022-07-06T12:09:42;100154.94;;;19.73;66.48
30554;BME280;17335;50.720;7.452;2022-07-06T12:12:11;100142.34;;;19.57;65.22
30554;BME280;17335;50.720;7.452;2022-07-06T12:14:39;100140.81;;;19.77;71.36
30554;BME280;17335;50.720;7.452;2022-07-06T12:17:10;100142.16;;;20.41;75.89
30554;BME280;17335;50.720;7.452;2022-07-06T12:19:38;100147.50;;;20.79;68.28
30554;BME280;17335;50.720;7.452;2022-07-06T12:22:05;100136.59;;;21.01;62.33
30554;BME280;17335;50.720;7.452;2022-07-06T12:24:34;100137.97;;;20.75;60.89
30554;BME280;17335;50.720;7.452;2022-07-06T12:27:15;100138.66;;;20.47;57.49
30554;BME280;17335;50.720;7.452;2022-07-06T12:29:42;100140.28;;;20.27;59.12
30554;BME280;17335;50.720;7.452;2022-07-06T12:32:17;100139.72;;;20.16;63.94
30554;BME280;17335;50.720;7.452;2022-07-06T12:34:45;100130.56;;;20.54;62.80
30554;BME280;17335;50.720;7.452;2022-07-06T12:37:12;100129.31;;;20.86;57.87
30554;BME280;17335;50.720;7.452;2022-07-06T12:39:48;100116.59;;;21.15;55.91
30554;BME280;17335;50.720;7.452;2022-07-06T12:42:17;100113.19;;;21.34;56.96
30554;BME280;17335;50.720;7.452;2022-07-06T12:47:15;100121.66;;;21.40;53.91
30554;BME280;17335;50.720;7.452;2022-07-06T12:49:42;100126.53;;;20.50;55.78
30554;BME280;17335;50.720;7.452;2022-07-06T12:52:11;100123.16;;;20.33;57.08
30554;BME280;17335;50.720;7.452;2022-07-06T12:54:43;100122.97;;;20.34;59.58
30554;BME280;17335;50.720;7.452;2022-07-06T12:57:13;100128.34;;;20.42;58.90
30554;BME280;17335;50.720;7.452;2022-07-06T12:59:41;100123.81;;;20.50;56.40
30554;BME280;17335;50.720;7.452;2022-07-06T13:02:16;100122.31;;;20.02;55.33
30554;BME280;17335;50.720;7.452;2022-07-06T13:04:43;100115.00;;;20.18;57.42
30554;BME280;17335;50.720;7.452;2022-07-06T13:07:18;100117.19;;;20.59;61.16
30554;BME280;17335;50.720;7.452;2022-07-06T13:09:45;100109.88;;;20.59;55.86
30554;BME280;17335;50.720;7.452;2022-07-06T13:12:12;100110.72;;;20.96;59.71
30554;BME280;17335;50.720;7.452;2022-07-06T13:14:39;100100.56;;;20.69;57.61